Terminal Aerodrome Forecast
Issued by NWS Sterling, VA

Current Version | Previous Version | Text Only | Print | Product List | Glossary Off
Versions: 1 2 3 4 5 6 7 8 9 10 11 12 13 14 15 16 17 18 19 20 21 22 23

000
FTUS41 KLWX 152100 AAB
TAFDCA
TAF AMD
KDCA 152100Z 1521/1624 00000KT P6SM -SN BKN015 OVC035
     FM152300 VRB03KT P6SM SCT060
     FM160000 25004KT P6SM FEW250
     FM161400 23009KT P6SM SCT250
     FM162300 23005KT P6SM FEW250=

USA.gov is the U.S. government's official web portal to all federal, state and local government web resources and services.